createdAt,value
2023-05-03T00:03:24.001Z,100423.00
2023-05-03T00:08:26.957Z,100423.34
2023-05-03T00:13:29.949Z,100431.72
2023-05-03T00:18:32.953Z,100429.88
2023-05-03T00:23:35.854Z,100417.88
2023-05-03T00:28:39.256Z,100417.06
2023-05-03T00:33:42.431Z,100413.06
2023-05-03T00:38:45.480Z,100421.38
2023-05-03T00:43:48.464Z,100412.91
2023-05-03T00:48:51.505Z,100417.06
2023-05-03T00:53:54.688Z,100417.88
2023-05-03T00:58:58.200Z,100421.38
2023-05-03T01:04:03.164Z,100419.91
2023-05-03T01:09:23.918Z,100413.75
2023-05-03T01:14:51.595Z,100424.59
2023-05-03T01:20:08.756Z,100418.41
2023-05-03T01:25:14.081Z,100419.25
2023-05-03T01:30:17.484Z,100433.44
2023-05-03T01:35:42.409Z,100434.25
2023-05-03T01:41:01.086Z,100436.75
2023-05-03T01:46:04.646Z,100433.44
2023-05-03T01:51:07.687Z,100437.94
2023-05-03T01:56:10.710Z,100434.41
2023-05-03T02:01:13.944Z,100434.59
2023-05-03T02:06:16.984Z,100432.75
2023-05-03T02:11:21.693Z,100429.06
2023-05-03T02:16:24.776Z,100417.56
2023-05-03T02:21:27.810Z,100411.41
2023-05-03T02:26:30.692Z,100412.91
2023-05-03T02:31:33.660Z,100413.06
2023-05-03T02:36:36.780Z,100414.28
2023-05-03T02:41:39.783Z,100410.78
2023-05-03T02:46:42.835Z,100418.59
2023-05-03T02:51:46.013Z,100409.13
2023-05-03T02:56:49.190Z,100405.97
2023-05-03T03:01:52.604Z,100409.66
2023-05-03T03:06:57.195Z,100401.66
2023-05-03T03:12:05.681Z,100400.19
2023-05-03T03:17:12.236Z,100393.16
2023-05-03T03:22:15.271Z,100395.81
2023-05-03T03:27:18.095Z,100392.69
2023-05-03T03:32:21.930Z,100400.03
2023-05-03T03:37:25.078Z,100406.88
2023-05-03T03:42:28.010Z,100407.19
2023-05-03T03:47:31.077Z,100411.91
2023-05-03T03:52:34.151Z,100419.25
2023-05-03T03:57:37.079Z,100424.91
2023-05-03T04:02:41.024Z,100423.63
2023-05-03T04:07:43.961Z,100414.13
2023-05-03T04:12:47.121Z,100413.66
2023-05-03T04:17:50.057Z,100425.16
2023-05-03T04:22:53.166Z,100435.63
2023-05-03T04:27:56.190Z,100427.66
2023-05-03T04:33:00.851Z,100429.13
2023-05-03T04:38:04.264Z,100432.47
2023-05-03T04:43:07.643Z,100436.91
2023-05-03T04:48:10.537Z,100439.19
2023-05-03T04:53:13.487Z,100445.22
2023-05-03T04:58:16.625Z,100448.69
2023-05-03T05:03:19.555Z,100443.88
2023-05-03T05:08:23.133Z,100460.84
2023-05-03T05:13:26.480Z,100464.53
2023-05-03T05:18:29.398Z,100462.69
2023-05-03T05:23:32.514Z,100465.84
2023-05-03T05:28:35.430Z,100466.16
2023-05-03T05:33:38.525Z,100462.09
2023-05-03T05:38:42.843Z,100473.91
2023-05-03T05:43:45.852Z,100469.69
2023-05-03T05:48:48.656Z,100472.97
2023-05-03T05:53:51.631Z,100464.75
2023-05-03T05:58:54.479Z,100468.00
2023-05-03T06:03:57.378Z,100470.78
2023-05-03T06:09:04.764Z,100468.88
2023-05-03T06:14:13.092Z,100483.56
2023-05-03T06:19:16.370Z,100499.16
2023-05-03T06:24:21.392Z,100504.91
2023-05-03T06:29:25.113Z,100506.34
2023-05-03T06:34:30.693Z,100519.38
2023-05-03T06:39:33.802Z,100521.94
2023-05-03T06:44:36.904Z,100529.41
2023-05-03T06:49:41.302Z,100509.69
2023-05-03T06:54:44.769Z,100533.50
2023-05-03T06:59:49.624Z,100521.22
2023-05-03T07:04:53.072Z,100518.75
2023-05-03T07:09:59.808Z,100516.56
2023-05-03T07:15:02.741Z,100526.19
2023-05-03T07:20:06.866Z,100537.22
2023-05-03T07:25:10.111Z,100529.22
2023-05-03T07:30:13.581Z,100533.19
2023-05-03T07:35:17.029Z,100523.41
2023-05-03T07:40:19.797Z,100530.16
2023-05-03T07:45:22.573Z,100527.94
2023-05-03T07:50:25.582Z,100532.16
2023-05-03T07:55:30.276Z,100532.53
2023-05-03T08:00:33.273Z,100529.41
2023-05-03T08:05:36.823Z,100532.84
2023-05-03T08:10:39.880Z,100534.38
2023-05-03T08:15:42.698Z,100537.31
2023-05-03T08:20:47.163Z,100546.00
2023-05-03T08:25:50.290Z,100545.19
2023-05-03T08:30:53.444Z,100539.66
2023-05-03T08:35:56.302Z,100533.91
2023-05-03T08:41:03.926Z,100542.19
2023-05-03T08:46:10.929Z,100548.22
2023-05-03T08:51:16.869Z,100547.19
2023-05-03T08:56:41.945Z,100548.00
2023-05-03T09:01:44.980Z,100556.09
2023-05-03T09:06:48.138Z,100554.81
2023-05-03T09:11:52.808Z,100552.75
2023-05-03T09:16:56.126Z,100546.94
2023-05-03T09:22:08.023Z,100544.25
2023-05-03T09:27:22.196Z,100545.50
2023-05-03T09:32:25.798Z,100552.09
2023-05-03T09:37:38.864Z,100554.56
2023-05-03T09:43:03.684Z,100553.94
2023-05-03T09:48:08.845Z,100550.81
2023-05-03T09:53:11.706Z,100550.59
2023-05-03T09:58:16.697Z,100548.72
2023-05-03T10:03:28.540Z,100542.88
2023-05-03T10:08:45.671Z,100541.66
2023-05-03T10:13:48.872Z,100537.66
2023-05-03T10:19:06.056Z,100535.50
2023-05-03T10:24:16.632Z,100530.75
2023-05-03T10:29:34.780Z,100525.00
2023-05-03T10:34:39.820Z,100524.38
2023-05-03T10:39:46.758Z,100524.00
2023-05-03T10:44:49.861Z,100514.09
2023-05-03T10:50:14.754Z,100517.31
2023-05-03T10:55:24.879Z,100513.22
2023-05-03T11:00:37.942Z,100512.50
2023-05-03T11:05:40.908Z,100513.16
2023-05-03T11:10:49.565Z,100508.41
2023-05-03T11:15:56.678Z,100509.94
2023-05-03T11:20:59.994Z,100513.75
2023-05-03T11:26:06.862Z,100517.34
2023-05-03T11:31:13.685Z,100518.00
2023-05-03T11:36:17.117Z,100518.41
2023-05-03T11:41:20.208Z,100517.53
2023-05-03T11:46:31.923Z,100515.84
2023-05-03T11:51:35.805Z,100518.00
2023-05-03T11:56:38.769Z,100509.00
2023-05-03T12:01:43.465Z,100512.06
2023-05-03T12:06:54.005Z,100511.50
2023-05-03T12:11:58.869Z,100506.91
2023-05-03T12:17:02.849Z,100506.09
2023-05-03T12:22:23.944Z,100502.63
2023-05-03T12:27:28.870Z,100504.72
2023-05-03T12:32:32.047Z,100500.19
2023-05-03T12:37:38.319Z,100498.13
2023-05-03T12:42:43.317Z,100497.13
2023-05-03T12:47:49.921Z,100489.31
2023-05-03T12:52:53.772Z,100488.25
2023-05-03T12:58:18.027Z,100488.28
2023-05-03T13:03:22.067Z,100476.88
2023-05-03T13:08:33.563Z,100479.56
2023-05-03T13:13:37.377Z,100470.31
2023-05-03T13:18:43.042Z,100472.81
2023-05-03T13:23:47.871Z,100467.22
2023-05-03T13:28:51.139Z,100472.84
2023-05-03T13:33:54.594Z,100472.44
2023-05-03T13:38:58.215Z,100473.72
2023-05-03T13:44:01.394Z,100467.28
2023-05-03T13:49:08.384Z,100459.00
2023-05-03T13:54:11.294Z,100458.38
2023-05-03T13:59:14.578Z,100456.50
2023-05-03T14:04:18.451Z,100456.06
2023-05-03T14:09:21.486Z,100459.41
2023-05-03T14:14:27.814Z,100444.28
2023-05-03T14:19:30.975Z,100446.66
2023-05-03T14:24:33.932Z,100445.91
2023-05-03T14:29:36.970Z,100441.44
2023-05-03T14:34:40.222Z,100435.47
2023-05-03T14:39:43.344Z,100437.31
2023-05-03T14:44:46.842Z,100434.53
2023-05-03T14:49:51.197Z,100445.84
2023-05-03T14:54:54.618Z,100441.34
2023-05-03T14:59:58.421Z,100452.28
2023-05-03T15:05:03.640Z,100438.69
2023-05-03T15:10:07.994Z,100437.16
2023-05-03T15:15:12.124Z,100444.75
2023-05-03T15:20:15.908Z,100445.03
2023-05-03T15:25:19.200Z,100430.84
2023-05-03T15:30:22.357Z,100450.16
2023-05-03T15:35:25.521Z,100452.06
2023-05-03T15:40:29.018Z,100455.78
2023-05-03T15:45:32.975Z,100457.03
2023-05-03T15:50:36.073Z,100460.13
2023-05-03T15:55:39.184Z,100459.09
2023-05-03T16:00:42.464Z,100455.00
2023-05-03T16:05:46.917Z,100462.44
2023-05-03T16:10:50.084Z,100455.38
2023-05-03T16:15:56.521Z,100459.13
2023-05-03T16:21:01.043Z,100449.16
2023-05-03T16:26:14.574Z,100446.28
2023-05-03T16:31:18.036Z,100454.94
2023-05-03T16:36:20.869Z,100454.13
2023-05-03T16:41:24.524Z,100453.31
2023-05-03T16:46:27.604Z,100454.53
2023-05-03T16:51:31.635Z,100459.28
2023-05-03T16:56:34.827Z,100453.66
2023-05-03T17:01:37.720Z,100461.06
2023-05-03T17:06:40.960Z,100452.38
2023-05-03T17:11:44.077Z,100460.16
2023-05-03T17:16:49.036Z,100461.56
2023-05-03T17:21:52.729Z,100461.31
2023-05-03T17:26:56.806Z,100475.34
2023-05-03T17:31:59.855Z,100470.13
2023-05-03T17:37:02.989Z,100478.97
2023-05-03T17:42:06.594Z,100481.41
2023-05-03T17:47:11.036Z,100483.44
2023-05-03T17:52:13.980Z,100485.66
2023-05-03T17:57:17.159Z,100488.94
2023-05-03T18:02:21.377Z,100486.84
2023-05-03T18:07:25.101Z,100487.78
2023-05-03T18:12:28.514Z,100500.16
2023-05-03T18:17:32.122Z,100494.91
2023-05-03T18:22:35.175Z,100505.78
2023-05-03T18:27:38.264Z,100518.56
2023-05-03T18:32:41.206Z,100520.56
2023-05-03T18:37:44.575Z,100518.25
2023-05-03T18:42:47.432Z,100518.84
2023-05-03T18:47:50.445Z,100531.97
2023-05-03T18:52:54.670Z,100519.97
2023-05-03T18:57:58.942Z,100543.00
2023-05-03T19:03:02.012Z,100545.59
2023-05-03T19:08:05.721Z,100549.88
2023-05-03T19:13:09.219Z,100546.97
2023-05-03T19:18:14.765Z,100546.69
2023-05-03T19:23:19.738Z,100565.16
2023-05-03T19:28:22.948Z,100568.03
2023-05-03T19:33:26.145Z,100564.06
2023-05-03T19:38:29.124Z,100573.28
2023-05-03T19:43:32.505Z,100572.22
2023-05-03T19:48:35.756Z,100574.63
2023-05-03T19:53:38.772Z,100578.69
2023-05-03T19:58:41.994Z,100572.84
2023-05-03T20:03:45.286Z,100581.06
2023-05-03T20:08:49.449Z,100571.13
2023-05-03T20:13:52.187Z,100574.00
2023-05-03T20:18:55.482Z,100571.50
2023-05-03T20:23:58.822Z,100576.78
2023-05-03T20:29:01.575Z,100574.94
2023-05-03T20:34:04.332Z,100587.91
2023-05-03T20:39:09.611Z,100597.59
2023-05-03T20:44:13.813Z,100597.78
2023-05-03T20:49:16.823Z,100616.31
2023-05-03T20:54:19.795Z,100614.47
2023-05-03T20:59:22.854Z,100619.66
2023-05-03T21:04:26.794Z,100611.16
2023-05-03T21:09:30.556Z,100612.38
2023-05-03T21:14:33.748Z,100616.22
2023-05-03T21:19:36.678Z,100630.63
2023-05-03T21:24:40.386Z,100620.66
2023-05-03T21:29:44.674Z,100632.38
2023-05-03T21:34:47.689Z,100624.06
2023-05-03T21:40:01.043Z,100617.41
2023-05-03T21:45:05.489Z,100624.81
2023-05-03T21:50:08.820Z,100628.66
2023-05-03T21:55:12.356Z,100621.81
2023-05-03T22:00:19.540Z,100625.84
2023-05-03T22:05:22.474Z,100627.69
2023-05-03T22:10:25.874Z,100626.22
2023-05-03T22:15:32.251Z,100626.56
2023-05-03T22:20:35.396Z,100620.69
2023-05-03T22:25:38.789Z,100617.72
2023-05-03T22:30:41.865Z,100618.72
2023-05-03T22:35:44.944Z,100625.63
2023-05-03T22:40:47.946Z,100616.00
2023-05-03T22:45:50.907Z,100603.38
2023-05-03T22:50:53.898Z,100612.94
2023-05-03T22:56:04.398Z,100608.16
2023-05-03T23:01:11.898Z,100608.50
2023-05-03T23:06:15.344Z,100608.00
2023-05-03T23:11:18.561Z,100599.06
2023-05-03T23:16:22.028Z,100596.91
2023-05-03T23:21:25.283Z,100599.31
2023-05-03T23:26:29.151Z,100595.50
2023-05-03T23:31:33.854Z,100584.53
2023-05-03T23:36:38.847Z,100579.06
2023-05-03T23:41:41.919Z,100572.59
2023-05-03T23:46:44.947Z,100575.59
2023-05-03T23:51:47.958Z,100569.13
2023-05-03T23:56:51.418Z,100566.34
